createdAt,value
2023-05-13T00:04:19.960Z,101734.44
2023-05-13T00:09:16.538Z,101747.53
2023-05-13T00:14:13.912Z,101753.56
2023-05-13T00:19:10.736Z,101752.59
2023-05-13T00:24:11.066Z,101758.13
2023-05-13T00:29:09.691Z,101773.56
2023-05-13T00:34:07.065Z,101776.00
2023-05-13T00:39:03.783Z,101769.81
2023-05-13T00:44:00.653Z,101767.28
2023-05-13T00:48:57.529Z,101766.13
2023-05-13T00:53:56.020Z,101763.28
2023-05-13T00:58:53.143Z,101765.69
2023-05-13T01:04:00.560Z,101774.22
2023-05-13T01:09:01.721Z,101773.72
2023-05-13T01:14:02.855Z,101777.28
2023-05-13T01:19:02.357Z,101783.81
2023-05-13T01:23:59.775Z,101780.53
2023-05-13T01:28:56.688Z,101787.59
2023-05-13T01:33:54.235Z,101793.28
2023-05-13T01:38:52.279Z,101795.91
2023-05-13T01:43:51.696Z,101798.16
2023-05-13T01:48:48.729Z,101798.25
2023-05-13T01:53:45.852Z,101792.22
2023-05-13T01:58:42.846Z,101795.28
2023-05-13T02:03:40.580Z,101803.28
2023-05-13T02:08:37.557Z,101800.78
2023-05-13T02:13:34.227Z,101808.94
2023-05-13T02:18:31.316Z,101806.59
2023-05-13T02:23:29.794Z,101805.06
2023-05-13T02:28:26.763Z,101795.41
2023-05-13T02:33:23.546Z,101791.22
2023-05-13T02:38:22.030Z,101787.94
2023-05-13T02:43:19.797Z,101781.34
2023-05-13T02:48:24.294Z,101783.00
2023-05-13T02:53:21.317Z,101794.03
2023-05-13T02:58:24.383Z,101796.69
2023-05-13T03:03:22.213Z,101795.75
2023-05-13T03:08:19.279Z,101807.19
2023-05-13T03:13:15.908Z,101809.31
2023-05-13T03:18:13.158Z,101799.88
2023-05-13T03:23:10.496Z,101807.41
2023-05-13T03:28:08.630Z,101811.91
2023-05-13T03:33:09.131Z,101811.84
2023-05-13T03:38:07.425Z,101816.19
2023-05-13T03:43:07.862Z,101819.56
2023-05-13T03:48:06.577Z,101826.03
2023-05-13T03:53:03.763Z,101842.28
2023-05-13T03:58:11.152Z,101845.19
2023-05-13T04:03:07.947Z,101857.06
2023-05-13T04:08:04.808Z,101853.56
2023-05-13T04:13:02.149Z,101853.69
2023-05-13T04:17:59.100Z,101855.53
2023-05-13T04:22:55.963Z,101861.31
2023-05-13T04:27:52.640Z,101863.84
2023-05-13T04:32:59.340Z,101870.75
2023-05-13T04:37:57.186Z,101876.69
2023-05-13T04:42:54.227Z,101873.31
2023-05-13T04:47:56.233Z,101884.81
2023-05-13T04:52:56.069Z,101885.28
2023-05-13T04:57:53.221Z,101885.06
2023-05-13T05:02:50.177Z,101879.66
2023-05-13T05:07:46.927Z,101893.84
2023-05-13T05:12:44.837Z,101891.69
2023-05-13T05:17:42.884Z,101889.78
2023-05-13T05:22:41.437Z,101886.97
2023-05-13T05:27:41.597Z,101890.69
2023-05-13T05:32:39.557Z,101880.00
2023-05-13T05:37:36.532Z,101902.44
2023-05-13T05:42:36.290Z,101914.66
2023-05-13T05:47:33.124Z,101913.75
2023-05-13T05:52:30.586Z,101918.03
2023-05-13T05:57:28.151Z,101942.72
2023-05-13T06:02:24.948Z,101939.94
2023-05-13T06:07:22.590Z,101931.91
2023-05-13T06:12:20.334Z,101933.47
2023-05-13T06:17:17.209Z,101914.84
2023-05-13T06:22:17.163Z,101916.31
2023-05-13T06:27:13.922Z,101919.38
2023-05-13T06:32:13.627Z,101924.97
2023-05-13T06:37:10.281Z,101910.09
2023-05-13T06:42:07.553Z,101916.41
2023-05-13T06:47:15.302Z,101910.75
2023-05-13T06:52:13.796Z,101916.75
2023-05-13T06:57:12.303Z,101905.88
2023-05-13T07:02:09.324Z,101909.84
2023-05-13T07:07:06.289Z,101904.25
2023-05-13T07:12:03.723Z,101905.41
2023-05-13T07:17:01.611Z,101912.19
2023-05-13T07:21:58.221Z,101916.63
2023-05-13T07:26:54.961Z,101903.16
2023-05-13T07:31:52.568Z,101899.03
2023-05-13T07:36:49.428Z,101902.63
2023-05-13T07:41:46.147Z,101905.94
2023-05-13T07:46:43.095Z,101903.31
2023-05-13T07:51:40.761Z,101912.19
2023-05-13T07:56:40.433Z,101912.78
2023-05-13T08:01:40.902Z,101909.34
2023-05-13T08:06:37.676Z,101906.13
2023-05-13T08:11:37.917Z,101901.47
2023-05-13T08:16:35.297Z,101901.66
2023-05-13T08:21:32.171Z,101902.16
2023-05-13T08:26:28.891Z,101906.13
2023-05-13T08:31:26.381Z,101904.69
2023-05-13T08:36:25.835Z,101909.69
2023-05-13T08:41:26.323Z,101908.41
2023-05-13T08:46:25.163Z,101907.13
2023-05-13T08:51:22.728Z,101910.19
2023-05-13T08:56:19.602Z,101901.16
2023-05-13T09:01:16.963Z,101887.16
2023-05-13T09:06:13.907Z,101900.50
2023-05-13T09:11:11.398Z,101892.03
2023-05-13T09:16:08.176Z,101891.50
2023-05-13T09:21:19.934Z,101886.06
2023-05-13T09:26:27.755Z,101899.00
2023-05-13T09:31:32.666Z,101907.91
2023-05-13T09:36:34.027Z,101909.06
2023-05-13T09:41:31.599Z,101898.09
2023-05-13T09:46:28.327Z,101894.03
2023-05-13T09:51:25.506Z,101890.41
2023-05-13T09:56:23.364Z,101888.41
2023-05-13T10:01:21.166Z,101866.09
2023-05-13T10:06:18.759Z,101878.75
2023-05-13T10:11:15.429Z,101874.59
2023-05-13T10:16:12.344Z,101868.22
2023-05-13T10:21:09.716Z,101866.63
2023-05-13T10:26:06.709Z,101865.22
2023-05-13T10:31:03.679Z,101862.03
2023-05-13T10:36:08.724Z,101846.91
2023-05-13T10:41:11.911Z,101853.34
2023-05-13T10:46:12.132Z,101861.41
2023-05-13T10:51:09.503Z,101858.69
2023-05-13T10:56:07.382Z,101860.06
2023-05-13T11:01:22.086Z,101860.16
2023-05-13T11:06:23.917Z,101857.41
2023-05-13T11:11:29.146Z,101867.09
2023-05-13T11:16:25.875Z,101879.84
2023-05-13T11:21:30.685Z,101878.53
2023-05-13T11:26:40.990Z,101878.88
2023-05-13T11:31:47.349Z,101859.47
2023-05-13T11:36:46.406Z,101868.88
2023-05-13T11:41:44.447Z,101870.94
2023-05-13T11:46:54.921Z,101873.53
2023-05-13T11:51:52.467Z,101871.53
2023-05-13T11:56:49.606Z,101875.34
2023-05-13T12:01:46.579Z,101872.53
2023-05-13T12:06:45.152Z,101875.41
2023-05-13T12:11:44.079Z,101881.00
2023-05-13T12:16:41.760Z,101878.34
2023-05-13T12:21:39.168Z,101869.97
2023-05-13T12:26:36.305Z,101866.97
2023-05-13T12:31:34.470Z,101874.13
2023-05-13T12:36:36.419Z,101858.66
2023-05-13T12:41:34.331Z,101855.94
2023-05-13T12:46:31.325Z,101855.28
2023-05-13T12:51:29.422Z,101851.03
2023-05-13T12:56:26.271Z,101841.09
2023-05-13T13:01:23.273Z,101835.63
2023-05-13T13:06:20.179Z,101836.72
2023-05-13T13:11:18.255Z,101831.44
2023-05-13T13:16:15.317Z,101819.13
2023-05-13T13:21:14.769Z,101827.16
2023-05-13T13:26:14.481Z,101823.25
2023-05-13T13:31:14.891Z,101821.69
2023-05-13T13:36:14.598Z,101818.00
2023-05-13T13:41:11.592Z,101810.50
2023-05-13T13:46:08.510Z,101801.13
2023-05-13T13:51:06.037Z,101802.69
2023-05-13T13:56:03.085Z,101800.16
2023-05-13T14:01:00.199Z,101805.03
2023-05-13T14:05:57.151Z,101802.44
2023-05-13T14:10:54.634Z,101785.63
2023-05-13T14:15:51.534Z,101791.75
2023-05-13T14:20:50.011Z,101793.03
2023-05-13T14:25:47.320Z,101795.63
2023-05-13T14:30:44.925Z,101789.66
2023-05-13T14:35:41.693Z,101796.44
2023-05-13T14:40:39.112Z,101814.81
2023-05-13T14:45:36.160Z,101805.22
2023-05-13T14:50:36.927Z,101793.84
2023-05-13T14:55:33.890Z,101810.34
2023-05-13T15:00:31.229Z,101799.78
2023-05-13T15:05:27.948Z,101800.41
2023-05-13T15:10:25.283Z,101798.41
2023-05-13T15:15:22.687Z,101802.53
2023-05-13T15:20:19.395Z,101798.66
2023-05-13T15:25:19.332Z,101803.13
2023-05-13T15:30:17.054Z,101790.00
2023-05-13T15:35:14.989Z,101802.78
2023-05-13T15:40:12.276Z,101795.22
2023-05-13T15:45:11.523Z,101795.22
2023-05-13T15:50:09.539Z,101789.50
2023-05-13T15:55:06.720Z,101789.75
2023-05-13T16:00:05.528Z,101792.38
2023-05-13T16:05:02.255Z,101792.34
2023-05-13T16:09:59.642Z,101792.03
2023-05-13T16:14:58.584Z,101797.81
2023-05-13T16:19:55.225Z,101806.91
2023-05-13T16:24:52.209Z,101798.00
2023-05-13T16:29:50.517Z,101803.63
2023-05-13T16:34:47.297Z,101800.69
2023-05-13T16:39:44.379Z,101792.22
2023-05-13T16:44:40.993Z,101797.84
2023-05-13T16:49:38.340Z,101796.59
2023-05-13T16:54:34.910Z,101805.28
2023-05-13T16:59:31.689Z,101788.09
2023-05-13T17:04:30.129Z,101808.09
2023-05-13T17:09:29.672Z,101816.28
2023-05-13T17:14:26.399Z,101821.94
2023-05-13T17:19:23.260Z,101820.03
2023-05-13T17:24:21.658Z,101821.00
2023-05-13T17:29:18.961Z,101832.91
2023-05-13T17:34:19.033Z,101833.69
2023-05-13T17:39:15.732Z,101832.28
2023-05-13T17:44:12.506Z,101839.78
2023-05-13T17:49:10.137Z,101841.88
2023-05-13T17:54:07.157Z,101839.69
2023-05-13T17:59:03.849Z,101836.75
2023-05-13T18:04:00.813Z,101834.69
2023-05-13T18:08:58.096Z,101844.09
2023-05-13T18:13:57.236Z,101853.31
2023-05-13T18:18:54.206Z,101846.22
2023-05-13T18:23:50.844Z,101846.81
2023-05-13T18:28:48.075Z,101844.69
2023-05-13T18:33:44.914Z,101843.84
2023-05-13T18:38:41.617Z,101850.47
2023-05-13T18:43:41.084Z,101849.41
2023-05-13T18:48:40.956Z,101834.25
2023-05-13T18:53:37.908Z,101862.63
2023-05-13T18:58:34.610Z,101862.34
2023-05-13T19:03:31.525Z,101865.19
2023-05-13T19:08:28.818Z,101866.13
2023-05-13T19:13:39.505Z,101873.47
2023-05-13T19:18:43.240Z,101872.69
2023-05-13T19:23:40.605Z,101866.41
2023-05-13T19:28:38.047Z,101857.38
2023-05-13T19:33:36.576Z,101854.03
2023-05-13T19:38:33.499Z,101853.72
2023-05-13T19:43:30.765Z,101853.91
2023-05-13T19:48:30.151Z,101847.56
2023-05-13T19:53:27.007Z,101851.38
2023-05-13T19:58:23.638Z,101848.56
2023-05-13T20:03:21.098Z,101843.09
2023-05-13T20:08:17.766Z,101849.75
2023-05-13T20:13:14.563Z,101840.94
2023-05-13T20:18:11.168Z,101832.97
2023-05-13T20:23:08.487Z,101829.72
2023-05-13T20:28:05.323Z,101819.81
2023-05-13T20:33:01.941Z,101809.00
2023-05-13T20:38:00.937Z,101814.16
2023-05-13T20:43:00.970Z,101815.72
2023-05-13T20:47:58.951Z,101816.22
2023-05-13T20:52:55.485Z,101817.88
2023-05-13T20:57:52.184Z,101821.97
2023-05-13T21:02:51.314Z,101819.66
2023-05-13T21:07:48.025Z,101820.50
2023-05-13T21:12:47.202Z,101814.00
2023-05-13T21:17:43.925Z,101820.19
2023-05-13T21:22:41.474Z,101812.22
2023-05-13T21:27:38.170Z,101807.91
2023-05-13T21:32:34.864Z,101814.16
2023-05-13T21:37:31.589Z,101792.63
2023-05-13T21:42:28.821Z,101815.09
2023-05-13T21:47:25.605Z,101820.03
2023-05-13T21:52:22.294Z,101821.78
2023-05-13T21:57:18.977Z,101814.13
2023-05-13T22:02:16.624Z,101815.19
2023-05-13T22:07:13.226Z,101811.53
2023-05-13T22:12:09.982Z,101805.94
2023-05-13T22:17:09.272Z,101799.13
2023-05-13T22:22:08.715Z,101801.47
2023-05-13T22:27:05.675Z,101805.56
2023-05-13T22:32:03.553Z,101820.25
2023-05-13T22:37:00.931Z,101806.88
2023-05-13T22:41:58.324Z,101812.78
2023-05-13T22:46:55.164Z,101822.69
2023-05-13T22:51:51.780Z,101818.97
2023-05-13T22:56:48.714Z,101816.16
2023-05-13T23:01:45.918Z,101819.00
2023-05-13T23:06:42.645Z,101821.94
2023-05-13T23:11:39.314Z,101820.22
2023-05-13T23:16:36.279Z,101816.94
2023-05-13T23:21:33.657Z,101822.19
2023-05-13T23:26:30.748Z,101817.22
2023-05-13T23:31:27.410Z,101823.22
2023-05-13T23:36:24.133Z,101836.59
2023-05-13T23:41:25.036Z,101828.59
2023-05-13T23:46:21.670Z,101818.38
2023-05-13T23:51:21.312Z,101822.41
2023-05-13T23:56:17.873Z,101842.63
